Noemi — V7HY6 — position and weather

sailwx.info

Track history (hours):
 
Tides and Currents Weather Stations Pressure Air Temp Water Temp Dewpoint Dewpoint Depression Visibility Wind Speed Wind Dir Waves Ship Positions

Noemi

Last reported at 2017-Mar-19 20:28 UTC. Time now 2017-Mar-25 07:39 UTC.
Position N 01°57' E 102°16'.

Length 229 m; draft 8 m.

Type: Tanker. MMSI: 538002335.

Date/timePositionNaut miles runAvg speedWind from/ knotsBaromVisibWave heightAir tempDewpointWater temp
2017-Mar-19 20:28N 01°57' E 102°16'1213.0
2017-Mar-19 19:33N 01°52' E 102°27'1212.5
2017-Mar-19 18:33N 01°47' E 102°38'1313.0
2017-Mar-19 17:33N 01°41' E 102°50'3313.4
2017-Mar-19 15:04N 01°22' E 103°17'815.0
2017-Mar-19 14:33N 01°16' E 103°23'1514.7
2017-Mar-19 13:33N 01°12' E 103°37'10 9.9
2017-Mar-19 12:33N 01°10' E 103°46'4 4.3
2017-Mar-19 11:33N 01°14' E 103°46'0 0.3
2017-Mar-19 10:18N 01°14' E 103°46'0 0.0
2017-Mar-19 09:24N 01°14' E 103°46'0 0.0
2017-Mar-19 08:06N 01°14' E 103°46'0 0.0
2017-Mar-19 07:33N 01°14' E 103°46'0 0.0
2017-Mar-19 06:33N 01°14' E 103°46'0 0.0
2017-Mar-19 05:24N 01°14' E 103°46'0 0.0
2017-Mar-19 04:33N 01°14' E 103°46'0 0.0
2017-Mar-19 03:33N 01°14' E 103°46'0 0.0
2017-Mar-19 02:33N 01°14' E 103°46'0 0.0
2017-Mar-19 01:30N 01°14' E 103°46'0 0.0
2017-Mar-19 00:33N 01°14' E 103°46'0 0.0
2017-Mar-18 23:33N 01°14' E 103°46'0 0.0
2017-Mar-18 22:21N 01°14' E 103°46'0 0.0
2017-Mar-18 21:30N 01°14' E 103°46'0 0.0
2017-Mar-18 20:21N 01°14' E 103°46'0 0.0
2017-Mar-18 19:27N 01°14' E 103°46'0 0.0
2017-Mar-18 18:33N 01°14' E 103°46'0 0.0
2017-Mar-18 17:30N 01°14' E 103°46'0 0.0
2017-Mar-18 16:33N 01°14' E 103°46'0 0.0
2017-Mar-18 15:27N 01°14' E 103°46'0 0.0
2017-Mar-18 14:33N 01°14' E 103°46'0 0.0
2017-Mar-18 13:24N 01°14' E 103°46'0 0.0
2017-Mar-18 12:30N 01°14' E 103°46'0 0.0
2017-Mar-18 10:27N 01°14' E 103°46'0 0.0
2017-Mar-18 08:30N 01°14' E 103°46'0 0.0
2017-Mar-18 07:33N 01°14' E 103°46'1 0.5
2017-Mar-18 06:33N 01°15' E 103°46'5 4.7
2017-Mar-18 05:33N 01°12' E 103°51'9 8.7
2017-Mar-18 04:33N 01°16' E 103°58'1 0.6
2017-Mar-18 03:14N 01°17' E 103°58'0 0.1
2017-Mar-18 01:25N 01°17' E 103°58'0 0.1
2017-Mar-18 00:31N 01°17' E 103°58'0 0.0
2017-Mar-17 23:31N 01°17' E 103°58'0 0.0
2017-Mar-17 22:31N 01°17' E 103°58'0 0.0
2017-Mar-17 21:31N 01°17' E 103°58'0 0.1
2017-Mar-17 20:28N 01°17' E 103°58'0 0.1
2017-Mar-17 19:22N 01°17' E 103°58'0 0.0
2017-Mar-17 18:31N 01°17' E 103°58'0 0.0
2017-Mar-17 17:31N 01°17' E 103°58'0 0.0
2017-Mar-17 16:28N 01°17' E 103°58'0 0.0
2017-Mar-17 15:28N 01°17' E 103°58'0 0.0
2017-Mar-17 14:28N 01°17' E 103°58'0 0.0
2017-Mar-17 13:28N 01°17' E 103°58'0 0.0
2017-Mar-17 12:31N 01°17' E 103°58'0 0.0
2017-Mar-17 11:19N 01°17' E 103°58'0 0.1
2017-Mar-17 10:31N 01°17' E 103°58'0 0.0
2017-Mar-17 09:31N 01°17' E 103°58'0 0.0
2017-Mar-17 08:31N 01°17' E 103°58'0 0.0
2017-Mar-17 07:28N 01°17' E 103°58'0 0.2
2017-Mar-17 06:28N 01°17' E 103°58'0 0.0
2017-Mar-17 05:28N 01°17' E 103°58'0 0.0
2017-Mar-17 04:31N 01°17' E 103°58'0 0.1
2017-Mar-17 03:22N 01°17' E 103°58'0 0.0
2017-Mar-17 02:25N 01°17' E 103°58'0 0.1
2017-Mar-17 01:04N 01°17' E 103°58'0 0.1
2017-Mar-17 00:25N 01°17' E 103°58'0 0.0
2017-Mar-16 23:31N 01°17' E 103°58'0 0.0
2017-Mar-16 22:31N 01°17' E 103°58'0 0.0
2017-Mar-16 21:22N 01°17' E 103°58'0 0.0
2017-Mar-16 20:28N 01°17' E 103°58'0 0.0
2017-Mar-16 19:31N 01°17' E 103°58'0 0.2
2017-Mar-16 18:31N 01°17' E 103°58'0 0.0
2017-Mar-16 17:28N 01°17' E 103°58'0 0.0
2017-Mar-16 16:31N 01°17' E 103°58'0 0.0
2017-Mar-16 15:28N 01°17' E 103°58'0 0.0
2017-Mar-16 14:28N 01°17' E 103°58'0 0.0
2017-Mar-16 13:25N 01°17' E 103°58'0 0.1
2017-Mar-16 12:28N 01°17' E 103°58'0 0.0
2017-Mar-16 11:28N 01°17' E 103°58'0 0.0
2017-Mar-16 10:28N 01°17' E 103°58'0 0.0
2017-Mar-16 09:31N 01°17' E 103°58'0 0.0
2017-Mar-16 08:28N 01°17' E 103°58'0 0.0
2017-Mar-16 07:31N 01°17' E 103°58'0 0.0
2017-Mar-16 06:22N 01°17' E 103°58'0 0.0
2017-Mar-16 05:28N 01°17' E 103°58'0 0.0
2017-Mar-16 04:25N 01°17' E 103°58'0 0.0
2017-Mar-16 03:19N 01°17' E 103°58'0 0.1
2017-Mar-16 02:25N 01°17' E 103°58'0 0.0
2017-Mar-16 01:31N 01°17' E 103°58'0 0.0
2017-Mar-16 00:19N 01°17' E 103°58'0 0.0
2017-Mar-15 23:25N 01°17' E 103°58'0 0.1
2017-Mar-15 22:25N 01°17' E 103°58'0 0.1
2017-Mar-15 21:28N 01°17' E 103°58'0 0.0
2017-Mar-15 20:25N 01°17' E 103°58'0 0.2
2017-Mar-15 19:28N 01°17' E 103°58'0 0.1
2017-Mar-15 18:25N 01°17' E 103°58'1 1.1
2017-Mar-15 17:31N 01°16' E 103°57'3 3.2
2017-Mar-15 16:33N 01°15' E 103°54'0 0.0
2017-Mar-15 15:32N 01°15' E 103°54'0 0.0
2017-Mar-15 14:32N 01°15' E 103°54'0 0.0
2017-Mar-15 13:32N 01°15' E 103°54'0 0.0
2017-Mar-15 11:29N 01°15' E 103°54'0 0.0
2017-Mar-15 10:26N 01°15' E 103°54'0 0.2
2017-Mar-15 09:32N 01°15' E 103°54'0 0.1
2017-Mar-15 08:32N 01°15' E 103°54'0 0.0
2017-Mar-15 07:26N 01°15' E 103°54'0 0.2
2017-Mar-15 06:29N 01°15' E 103°54'0 0.1
2017-Mar-15 05:32N 01°15' E 103°54'0 0.0
2017-Mar-15 04:32N 01°15' E 103°54'0 0.0
2017-Mar-15 03:32N 01°15' E 103°54'0 0.0
2017-Mar-15 02:20N 01°15' E 103°54'0 0.0
2017-Mar-15 01:32N 01°15' E 103°54'0 0.1
2017-Mar-15 00:32N 01°15' E 103°54'0 0.1
2017-Mar-14 23:26N 01°15' E 103°54'0 0.1
2017-Mar-14 22:26N 01°15' E 103°54'0 0.0
2017-Mar-14 21:29N 01°15' E 103°54'0 0.0
2017-Mar-14 20:29N 01°15' E 103°54'0 0.1
2017-Mar-14 19:32N 01°15' E 103°54'0 0.1
2017-Mar-14 18:32N 01°15' E 103°54'0 0.1
2017-Mar-14 17:32N 01°15' E 103°54'0 0.0
2017-Mar-14 16:29N 01°15' E 103°54'0 0.0
2017-Mar-14 15:32N 01°15' E 103°54'0 0.0
2017-Mar-14 14:32N 01°15' E 103°54'0 0.1
2017-Mar-14 13:32N 01°15' E 103°54'0 0.1
2017-Mar-14 12:32N 01°15' E 103°54'0 0.1
2017-Mar-14 11:32N 01°15' E 103°54'0 0.0
2017-Mar-14 10:32N 01°15' E 103°54'0 0.0
2017-Mar-14 09:29N 01°15' E 103°54'0 0.1
2017-Mar-14 08:29N 01°15' E 103°54'0 0.0
2017-Mar-14 07:32N 01°15' E 103°54'0 0.0
2017-Mar-14 06:20N 01°15' E 103°54'0 0.2
2017-Mar-14 05:32N 01°15' E 103°54'0 0.1
2017-Mar-14 04:32N 01°15' E 103°54'0 0.1
2017-Mar-14 03:26N 01°15' E 103°54'0 0.0
2017-Mar-14 02:17N 01°15' E 103°54'0 0.0
2017-Mar-14 01:23N 01°15' E 103°54'0 0.1
2017-Mar-14 00:32N 01°15' E 103°54'0 0.1
2017-Mar-13 23:32N 01°15' E 103°54'0 0.1
2017-Mar-13 22:32N 01°15' E 103°54'0 0.1
2017-Mar-13 21:29N 01°15' E 103°54'0 0.0
2017-Mar-13 20:29N 01°15' E 103°54'0 0.0
2017-Mar-13 19:29N 01°15' E 103°54'0 0.0
2017-Mar-13 18:32N 01°15' E 103°54'0 0.0
2017-Mar-13 17:26N 01°15' E 103°54'0 0.1
2017-Mar-13 16:32N 01°15' E 103°54'0 0.0
2017-Mar-13 15:32N 01°15' E 103°54'0 0.0
2017-Mar-13 14:20N 01°15' E 103°54'0 0.0
2017-Mar-13 13:32N 01°15' E 103°54'0 0.0
2017-Mar-13 12:32N 01°15' E 103°54'0 0.2
2017-Mar-13 11:32N 01°15' E 103°54'0 0.1
2017-Mar-13 10:29N 01°15' E 103°54'0 0.1
2017-Mar-13 09:26N 01°15' E 103°54'0 0.1
2017-Mar-13 07:32N 01°15' E 103°54'0 0.1
2017-Mar-13 06:32N 01°15' E 103°54'0 0.1
2017-Mar-13 05:29N 01°15' E 103°54'0 0.0
2017-Mar-13 04:26N 01°15' E 103°54'0 0.0
2017-Mar-13 03:23N 01°15' E 103°54'0 0.0
2017-Mar-13 02:32N 01°15' E 103°54'0 0.0
2017-Mar-13 01:32N 01°15' E 103°54'0 0.1
2017-Mar-13 00:32N 01°15' E 103°54'0 0.0
2017-Mar-12 23:32N 01°15' E 103°54'0 0.0
2017-Mar-12 22:32N 01°15' E 103°54'0 0.0
2017-Mar-12 21:32N 01°15' E 103°54'0 0.1
2017-Mar-12 20:32N 01°15' E 103°54'0 0.1
2017-Mar-12 19:32N 01°15' E 103°54'0 0.1
2017-Mar-12 18:32N 01°15' E 103°54'0 0.0
2017-Mar-12 17:32N 01°15' E 103°54'0 0.0
2017-Mar-12 16:32N 01°15' E 103°54'0 0.0
2017-Mar-12 15:32N 01°15' E 103°54'0 0.0
2017-Mar-12 14:29N 01°15' E 103°54'0 0.0
2017-Mar-12 13:26N 01°15' E 103°54'0 0.2
2017-Mar-12 12:26N 01°15' E 103°54'0 0.1
2017-Mar-12 11:32N 01°15' E 103°54'0 0.1
2017-Mar-12 10:32N 01°15' E 103°54'0 0.0
2017-Mar-12 09:32N 01°15' E 103°54'0 0.0
2017-Mar-12 08:29N 01°15' E 103°54'0 0.0
2017-Mar-12 07:32N 01°15' E 103°54'0 0.0
2017-Mar-12 06:29N 01°15' E 103°54'0 0.2
2017-Mar-12 05:29N 01°15' E 103°54'0 0.2
2017-Mar-12 04:32N 01°15' E 103°54'0 0.1
2017-Mar-12 03:32N 01°15' E 103°54'0 0.0
2017-Mar-12 02:29N 01°15' E 103°54'0 0.1
2017-Mar-12 01:32N 01°15' E 103°54'0 0.1
2017-Mar-12 00:17N 01°15' E 103°54'0 0.0
2017-Mar-11 23:32N 01°15' E 103°54'0 0.0
2017-Mar-11 22:32N 01°15' E 103°54'0 0.0
2017-Mar-11 21:26N 01°15' E 103°54'0 0.1
2017-Mar-11 20:32N 01°15' E 103°54'0 0.0
2017-Mar-11 19:32N 01°15' E 103°54'0 0.0
2017-Mar-11 18:32N 01°15' E 103°54'0 0.1
2017-Mar-11 17:32N 01°15' E 103°54'0 0.0
2017-Mar-11 16:29N 01°15' E 103°54'0 0.0
2017-Mar-11 15:32N 01°15' E 103°54'0 0.0
2017-Mar-11 14:32N 01°15' E 103°54'0 0.1
2017-Mar-11 13:32N 01°15' E 103°54'0 0.0
2017-Mar-11 12:26N 01°15' E 103°54'0 0.2
2017-Mar-11 11:32N 01°15' E 103°54'0 0.1
2017-Mar-11 10:26N 01°15' E 103°54'0 0.1
2017-Mar-11 09:32N 01°15' E 103°54'0 0.0
2017-Mar-11 08:14N 01°15' E 103°54'0 0.0
2017-Mar-11 07:29N 01°15' E 103°54'0 0.1
2017-Mar-11 06:26N 01°15' E 103°54'0 0.0
2017-Mar-11 05:14N 01°15' E 103°54'0 0.1
2017-Mar-11 04:32N 01°15' E 103°54'0 0.1
2017-Mar-11 03:20N 01°15' E 103°54'0 0.1
2017-Mar-11 02:20N 01°15' E 103°54'0 0.0
2017-Mar-11 01:32N 01°15' E 103°54'0 0.0
2017-Mar-11 00:32N 01°15' E 103°54'0 0.0
2017-Mar-10 23:32N 01°15' E 103°54'0 0.0
2017-Mar-10 22:32N 01°15' E 103°54'0 0.0
2017-Mar-10 21:32N 01°15' E 103°54'0 0.0
2017-Mar-10 20:29N 01°15' E 103°54'0 0.0
2017-Mar-10 19:32N 01°15' E 103°54'0 0.0
2017-Mar-10 18:29N 01°15' E 103°54'0 0.0
2017-Mar-10 17:32N 01°15' E 103°54'0 0.0
2017-Mar-10 16:32N 01°15' E 103°54'0 0.0
2017-Mar-10 15:29N 01°15' E 103°54'0 0.0
2017-Mar-10 14:29N 01°15' E 103°54'0 0.0
2017-Mar-10 13:29N 01°15' E 103°54'0 0.0
2017-Mar-10 12:32N 01°15' E 103°54'0 0.0
2017-Mar-10 11:32N 01°15' E 103°54'0 0.1
2017-Mar-10 10:32N 01°15' E 103°54'4 3.9
2017-Mar-10 09:33N 01°12' E 103°51'6 5.3
2017-Mar-10 08:29N 01°14' E 103°46'0 0.0
2017-Mar-10 07:32N 01°14' E 103°46'0 0.0
2017-Mar-10 06:20N 01°14' E 103°46'0 0.0
2017-Mar-10 05:32N 01°14' E 103°46'0 0.0
2017-Mar-10 04:32N 01°14' E 103°46'0 0.0
2017-Mar-10 03:32N 01°14' E 103°46'0 0.0
2017-Mar-10 02:32N 01°14' E 103°46'0 0.0
2017-Mar-10 01:32N 01°14' E 103°46'0 0.0
2017-Mar-10 00:29N 01°14' E 103°46'0 0.0
2017-Mar-09 23:29N 01°14' E 103°46'0 0.0
2017-Mar-09 22:32N 01°14' E 103°46'0 0.0
2017-Mar-09 21:32N 01°14' E 103°46'0 0.0
2017-Mar-09 20:32N 01°14' E 103°46'  
Track history (hours):
 
Tides and Currents Weather Stations Pressure Air Temp Water Temp Dewpoint Dewpoint Depression Visibility Wind Speed Wind Dir Waves Ship Positions

Noemi

Last reported at 2017-Mar-19 20:28 UTC. Time now 2017-Mar-25 07:39 UTC.
Position N 01°57' E 102°16'.

Length 229 m; draft 8 m.

Type: Tanker. MMSI: 538002335.

Date/timePositionNaut miles runAvg speedWind from/ knotsBaromVisibWave heightAir tempDewpointWater temp
2017-Mar-19 20:28N 01°57' E 102°16'1213.0
2017-Mar-19 19:33N 01°52' E 102°27'1212.5
2017-Mar-19 18:33N 01°47' E 102°38'1313.0
2017-Mar-19 17:33N 01°41' E 102°50'3313.4
2017-Mar-19 15:04N 01°22' E 103°17'815.0
2017-Mar-19 14:33N 01°16' E 103°23'1514.7
2017-Mar-19 13:33N 01°12' E 103°37'10 9.9
2017-Mar-19 12:33N 01°10' E 103°46'4 4.3
2017-Mar-19 11:33N 01°14' E 103°46'0 0.3
2017-Mar-19 10:18N 01°14' E 103°46'0 0.0
2017-Mar-19 09:24N 01°14' E 103°46'0 0.0
2017-Mar-19 08:06N 01°14' E 103°46'0 0.0
2017-Mar-19 07:33N 01°14' E 103°46'0 0.0
2017-Mar-19 06:33N 01°14' E 103°46'0 0.0
2017-Mar-19 05:24N 01°14' E 103°46'0 0.0
2017-Mar-19 04:33N 01°14' E 103°46'0 0.0
2017-Mar-19 03:33N 01°14' E 103°46'0 0.0
2017-Mar-19 02:33N 01°14' E 103°46'0 0.0
2017-Mar-19 01:30N 01°14' E 103°46'0 0.0
2017-Mar-19 00:33N 01°14' E 103°46'0 0.0
2017-Mar-18 23:33N 01°14' E 103°46'0 0.0
2017-Mar-18 22:21N 01°14' E 103°46'0 0.0
2017-Mar-18 21:30N 01°14' E 103°46'0 0.0
2017-Mar-18 20:21N 01°14' E 103°46'0 0.0
2017-Mar-18 19:27N 01°14' E 103°46'0 0.0
2017-Mar-18 18:33N 01°14' E 103°46'0 0.0
2017-Mar-18 17:30N 01°14' E 103°46'0 0.0
2017-Mar-18 16:33N 01°14' E 103°46'0 0.0
2017-Mar-18 15:27N 01°14' E 103°46'0 0.0
2017-Mar-18 14:33N 01°14' E 103°46'0 0.0
2017-Mar-18 13:24N 01°14' E 103°46'0 0.0
2017-Mar-18 12:30N 01°14' E 103°46'0 0.0
2017-Mar-18 10:27N 01°14' E 103°46'0 0.0
2017-Mar-18 08:30N 01°14' E 103°46'0 0.0
2017-Mar-18 07:33N 01°14' E 103°46'1 0.5
2017-Mar-18 06:33N 01°15' E 103°46'5 4.7
2017-Mar-18 05:33N 01°12' E 103°51'9 8.7
2017-Mar-18 04:33N 01°16' E 103°58'1 0.6
2017-Mar-18 03:14N 01°17' E 103°58'0 0.1
2017-Mar-18 01:25N 01°17' E 103°58'0 0.1
2017-Mar-18 00:31N 01°17' E 103°58'0 0.0
2017-Mar-17 23:31N 01°17' E 103°58'0 0.0
2017-Mar-17 22:31N 01°17' E 103°58'0 0.0
2017-Mar-17 21:31N 01°17' E 103°58'0 0.1
2017-Mar-17 20:28N 01°17' E 103°58'0 0.1
2017-Mar-17 19:22N 01°17' E 103°58'0 0.0
2017-Mar-17 18:31N 01°17' E 103°58'0 0.0
2017-Mar-17 17:31N 01°17' E 103°58'0 0.0
2017-Mar-17 16:28N 01°17' E 103°58'0 0.0
2017-Mar-17 15:28N 01°17' E 103°58'0 0.0
2017-Mar-17 14:28N 01°17' E 103°58'0 0.0
2017-Mar-17 13:28N 01°17' E 103°58'0 0.0
2017-Mar-17 12:31N 01°17' E 103°58'0 0.0
2017-Mar-17 11:19N 01°17' E 103°58'0 0.1
2017-Mar-17 10:31N 01°17' E 103°58'0 0.0
2017-Mar-17 09:31N 01°17' E 103°58'0 0.0
2017-Mar-17 08:31N 01°17' E 103°58'0 0.0
2017-Mar-17 07:28N 01°17' E 103°58'0 0.2
2017-Mar-17 06:28N 01°17' E 103°58'0 0.0
2017-Mar-17 05:28N 01°17' E 103°58'0 0.0
2017-Mar-17 04:31N 01°17' E 103°58'0 0.1
2017-Mar-17 03:22N 01°17' E 103°58'0 0.0
2017-Mar-17 02:25N 01°17' E 103°58'0 0.1
2017-Mar-17 01:04N 01°17' E 103°58'0 0.1
2017-Mar-17 00:25N 01°17' E 103°58'0 0.0
2017-Mar-16 23:31N 01°17' E 103°58'0 0.0
2017-Mar-16 22:31N 01°17' E 103°58'0 0.0
2017-Mar-16 21:22N 01°17' E 103°58'0 0.0
2017-Mar-16 20:28N 01°17' E 103°58'0 0.0
2017-Mar-16 19:31N 01°17' E 103°58'0 0.2
2017-Mar-16 18:31N 01°17' E 103°58'0 0.0
2017-Mar-16 17:28N 01°17' E 103°58'0 0.0
2017-Mar-16 16:31N 01°17' E 103°58'0 0.0
2017-Mar-16 15:28N 01°17' E 103°58'0 0.0
2017-Mar-16 14:28N 01°17' E 103°58'0 0.0
2017-Mar-16 13:25N 01°17' E 103°58'0 0.1
2017-Mar-16 12:28N 01°17' E 103°58'0 0.0
2017-Mar-16 11:28N 01°17' E 103°58'0 0.0
2017-Mar-16 10:28N 01°17' E 103°58'0 0.0
2017-Mar-16 09:31N 01°17' E 103°58'0 0.0
2017-Mar-16 08:28N 01°17' E 103°58'0 0.0
2017-Mar-16 07:31N 01°17' E 103°58'0 0.0
2017-Mar-16 06:22N 01°17' E 103°58'0 0.0
2017-Mar-16 05:28N 01°17' E 103°58'0 0.0
2017-Mar-16 04:25N 01°17' E 103°58'0 0.0
2017-Mar-16 03:19N 01°17' E 103°58'0 0.1
2017-Mar-16 02:25N 01°17' E 103°58'0 0.0
2017-Mar-16 01:31N 01°17' E 103°58'0 0.0
2017-Mar-16 00:19N 01°17' E 103°58'0 0.0
2017-Mar-15 23:25N 01°17' E 103°58'0 0.1
2017-Mar-15 22:25N 01°17' E 103°58'0 0.1
2017-Mar-15 21:28N 01°17' E 103°58'0 0.0
2017-Mar-15 20:25N 01°17' E 103°58'0 0.2
2017-Mar-15 19:28N 01°17' E 103°58'0 0.1
2017-Mar-15 18:25N 01°17' E 103°58'1 1.1
2017-Mar-15 17:31N 01°16' E 103°57'3 3.2
2017-Mar-15 16:33N 01°15' E 103°54'0 0.0
2017-Mar-15 15:32N 01°15' E 103°54'0 0.0
2017-Mar-15 14:32N 01°15' E 103°54'0 0.0
2017-Mar-15 13:32N 01°15' E 103°54'0 0.0
2017-Mar-15 11:29N 01°15' E 103°54'0 0.0
2017-Mar-15 10:26N 01°15' E 103°54'0 0.2
2017-Mar-15 09:32N 01°15' E 103°54'0 0.1
2017-Mar-15 08:32N 01°15' E 103°54'0 0.0
2017-Mar-15 07:26N 01°15' E 103°54'0 0.2
2017-Mar-15 06:29N 01°15' E 103°54'0 0.1
2017-Mar-15 05:32N 01°15' E 103°54'0 0.0
2017-Mar-15 04:32N 01°15' E 103°54'0 0.0
2017-Mar-15 03:32N 01°15' E 103°54'0 0.0
2017-Mar-15 02:20N 01°15' E 103°54'0 0.0
2017-Mar-15 01:32N 01°15' E 103°54'0 0.1
2017-Mar-15 00:32N 01°15' E 103°54'0 0.1
2017-Mar-14 23:26N 01°15' E 103°54'0 0.1
2017-Mar-14 22:26N 01°15' E 103°54'0 0.0
2017-Mar-14 21:29N 01°15' E 103°54'0 0.0
2017-Mar-14 20:29N 01°15' E 103°54'0 0.1
2017-Mar-14 19:32N 01°15' E 103°54'0 0.1
2017-Mar-14 18:32N 01°15' E 103°54'0 0.1
2017-Mar-14 17:32N 01°15' E 103°54'0 0.0
2017-Mar-14 16:29N 01°15' E 103°54'0 0.0
2017-Mar-14 15:32N 01°15' E 103°54'0 0.0
2017-Mar-14 14:32N 01°15' E 103°54'0 0.1
2017-Mar-14 13:32N 01°15' E 103°54'0 0.1
2017-Mar-14 12:32N 01°15' E 103°54'0 0.1
2017-Mar-14 11:32N 01°15' E 103°54'0 0.0
2017-Mar-14 10:32N 01°15' E 103°54'0 0.0
2017-Mar-14 09:29N 01°15' E 103°54'0 0.1
2017-Mar-14 08:29N 01°15' E 103°54'0 0.0
2017-Mar-14 07:32N 01°15' E 103°54'0 0.0
2017-Mar-14 06:20N 01°15' E 103°54'0 0.2
2017-Mar-14 05:32N 01°15' E 103°54'0 0.1
2017-Mar-14 04:32N 01°15' E 103°54'0 0.1
2017-Mar-14 03:26N 01°15' E 103°54'0 0.0
2017-Mar-14 02:17N 01°15' E 103°54'0 0.0
2017-Mar-14 01:23N 01°15' E 103°54'0 0.1
2017-Mar-14 00:32N 01°15' E 103°54'0 0.1
2017-Mar-13 23:32N 01°15' E 103°54'0 0.1
2017-Mar-13 22:32N 01°15' E 103°54'0 0.1
2017-Mar-13 21:29N 01°15' E 103°54'0 0.0
2017-Mar-13 20:29N 01°15' E 103°54'0 0.0
2017-Mar-13 19:29N 01°15' E 103°54'0 0.0
2017-Mar-13 18:32N 01°15' E 103°54'0 0.0
2017-Mar-13 17:26N 01°15' E 103°54'0 0.1
2017-Mar-13 16:32N 01°15' E 103°54'0 0.0
2017-Mar-13 15:32N 01°15' E 103°54'0 0.0
2017-Mar-13 14:20N 01°15' E 103°54'0 0.0
2017-Mar-13 13:32N 01°15' E 103°54'0 0.0
2017-Mar-13 12:32N 01°15' E 103°54'0 0.2
2017-Mar-13 11:32N 01°15' E 103°54'0 0.1
2017-Mar-13 10:29N 01°15' E 103°54'0 0.1
2017-Mar-13 09:26N 01°15' E 103°54'0 0.1
2017-Mar-13 07:32N 01°15' E 103°54'0 0.1
2017-Mar-13 06:32N 01°15' E 103°54'0 0.1
2017-Mar-13 05:29N 01°15' E 103°54'0 0.0
2017-Mar-13 04:26N 01°15' E 103°54'0 0.0
2017-Mar-13 03:23N 01°15' E 103°54'0 0.0
2017-Mar-13 02:32N 01°15' E 103°54'0 0.0
2017-Mar-13 01:32N 01°15' E 103°54'0 0.1
2017-Mar-13 00:32N 01°15' E 103°54'0 0.0
2017-Mar-12 23:32N 01°15' E 103°54'0 0.0
2017-Mar-12 22:32N 01°15' E 103°54'0 0.0
2017-Mar-12 21:32N 01°15' E 103°54'0 0.1
2017-Mar-12 20:32N 01°15' E 103°54'0 0.1
2017-Mar-12 19:32N 01°15' E 103°54'0 0.1
2017-Mar-12 18:32N 01°15' E 103°54'0 0.0
2017-Mar-12 17:32N 01°15' E 103°54'0 0.0
2017-Mar-12 16:32N 01°15' E 103°54'0 0.0
2017-Mar-12 15:32N 01°15' E 103°54'0 0.0
2017-Mar-12 14:29N 01°15' E 103°54'0 0.0
2017-Mar-12 13:26N 01°15' E 103°54'0 0.2
2017-Mar-12 12:26N 01°15' E 103°54'0 0.1
2017-Mar-12 11:32N 01°15' E 103°54'0 0.1
2017-Mar-12 10:32N 01°15' E 103°54'0 0.0
2017-Mar-12 09:32N 01°15' E 103°54'0 0.0
2017-Mar-12 08:29N 01°15' E 103°54'0 0.0
2017-Mar-12 07:32N 01°15' E 103°54'0 0.0
2017-Mar-12 06:29N 01°15' E 103°54'0 0.2
2017-Mar-12 05:29N 01°15' E 103°54'0 0.2
2017-Mar-12 04:32N 01°15' E 103°54'0 0.1
2017-Mar-12 03:32N 01°15' E 103°54'0 0.0
2017-Mar-12 02:29N 01°15' E 103°54'0 0.1
2017-Mar-12 01:32N 01°15' E 103°54'0 0.1
2017-Mar-12 00:17N 01°15' E 103°54'0 0.0
2017-Mar-11 23:32N 01°15' E 103°54'0 0.0
2017-Mar-11 22:32N 01°15' E 103°54'0 0.0
2017-Mar-11 21:26N 01°15' E 103°54'0 0.1
2017-Mar-11 20:32N 01°15' E 103°54'0 0.0
2017-Mar-11 19:32N 01°15' E 103°54'0 0.0
2017-Mar-11 18:32N 01°15' E 103°54'0 0.1
2017-Mar-11 17:32N 01°15' E 103°54'0 0.0
2017-Mar-11 16:29N 01°15' E 103°54'0 0.0
2017-Mar-11 15:32N 01°15' E 103°54'0 0.0
2017-Mar-11 14:32N 01°15' E 103°54'0 0.1
2017-Mar-11 13:32N 01°15' E 103°54'0 0.0
2017-Mar-11 12:26N 01°15' E 103°54'0 0.2
2017-Mar-11 11:32N 01°15' E 103°54'0 0.1
2017-Mar-11 10:26N 01°15' E 103°54'0 0.1
2017-Mar-11 09:32N 01°15' E 103°54'0 0.0
2017-Mar-11 08:14N 01°15' E 103°54'0 0.0
2017-Mar-11 07:29N 01°15' E 103°54'0 0.1
2017-Mar-11 06:26N 01°15' E 103°54'0 0.0
2017-Mar-11 05:14N 01°15' E 103°54'0 0.1
2017-Mar-11 04:32N 01°15' E 103°54'0 0.1
2017-Mar-11 03:20N 01°15' E 103°54'0 0.1
2017-Mar-11 02:20N 01°15' E 103°54'0 0.0
2017-Mar-11 01:32N 01°15' E 103°54'0 0.0
2017-Mar-11 00:32N 01°15' E 103°54'0 0.0
2017-Mar-10 23:32N 01°15' E 103°54'0 0.0
2017-Mar-10 22:32N 01°15' E 103°54'0 0.0
2017-Mar-10 21:32N 01°15' E 103°54'0 0.0
2017-Mar-10 20:29N 01°15' E 103°54'0 0.0
2017-Mar-10 19:32N 01°15' E 103°54'0 0.0
2017-Mar-10 18:29N 01°15' E 103°54'0 0.0
2017-Mar-10 17:32N 01°15' E 103°54'0 0.0
2017-Mar-10 16:32N 01°15' E 103°54'0 0.0
2017-Mar-10 15:29N 01°15' E 103°54'0 0.0
2017-Mar-10 14:29N 01°15' E 103°54'0 0.0
2017-Mar-10 13:29N 01°15' E 103°54'0 0.0
2017-Mar-10 12:32N 01°15' E 103°54'0 0.0
2017-Mar-10 11:32N 01°15' E 103°54'0 0.1
2017-Mar-10 10:32N 01°15' E 103°54'4 3.9
2017-Mar-10 09:33N 01°12' E 103°51'6 5.3
2017-Mar-10 08:29N 01°14' E 103°46'0 0.0
2017-Mar-10 07:32N 01°14' E 103°46'0 0.0
2017-Mar-10 06:20N 01°14' E 103°46'0 0.0
2017-Mar-10 05:32N 01°14' E 103°46'0 0.0
2017-Mar-10 04:32N 01°14' E 103°46'0 0.0
2017-Mar-10 03:32N 01°14' E 103°46'0 0.0
2017-Mar-10 02:32N 01°14' E 103°46'0 0.0
2017-Mar-10 01:32N 01°14' E 103°46'0 0.0
2017-Mar-10 00:29N 01°14' E 103°46'0 0.0
2017-Mar-09 23:29N 01°14' E 103°46'0 0.0
2017-Mar-09 22:32N 01°14' E 103°46'0 0.0
2017-Mar-09 21:32N 01°14' E 103°46'0 0.0
2017-Mar-09 20:32N 01°14' E 103°46'  

Dump ship's entire track history